createdAt,value
2018-11-22T00:01:01.520Z,23.03
2018-11-22T00:03:29.965Z,21.63
2018-11-22T00:05:58.452Z,22.10
2018-11-22T00:08:27.287Z,20.90
2018-11-22T00:10:56.061Z,20.83
2018-11-22T00:13:24.226Z,21.90
2018-11-22T00:15:52.993Z,22.20
2018-11-22T00:18:21.164Z,22.43
2018-11-22T00:20:49.351Z,22.30
2018-11-22T00:23:17.577Z,22.60
2018-11-22T00:25:46.019Z,22.17
2018-11-22T00:28:14.907Z,22.00
2018-11-22T00:30:43.085Z,22.10
2018-11-22T00:33:11.547Z,24.40
2018-11-22T00:35:40.044Z,22.47
2018-11-22T00:38:08.819Z,24.30
2018-11-22T00:40:37.329Z,21.20
2018-11-22T00:43:05.989Z,23.57
2018-11-22T00:45:53.567Z,22.07
2018-11-22T00:48:22.092Z,22.90
2018-11-22T00:50:50.592Z,22.57
2018-11-22T00:53:18.767Z,22.87
2018-11-22T00:55:46.923Z,22.50
2018-11-22T00:58:15.097Z,21.73
2018-11-22T01:00:44.076Z,22.63
2018-11-22T01:03:12.596Z,21.67
2018-11-22T01:05:59.837Z,22.60
2018-11-22T01:08:28.027Z,24.53
2018-11-22T01:10:56.541Z,23.50
2018-11-22T01:13:25.097Z,25.37
2018-11-22T01:15:53.714Z,25.23
2018-11-22T01:18:29.880Z,24.07
2018-11-22T01:20:58.897Z,23.93
2018-11-22T01:23:28.445Z,24.30
2018-11-22T01:25:57.818Z,23.67
2018-11-22T01:28:26.662Z,23.63
2018-11-22T01:30:55.181Z,23.83
2018-11-22T01:33:23.684Z,23.10
2018-11-22T01:35:52.448Z,24.17
2018-11-22T01:38:20.922Z,23.10
2018-11-22T01:40:49.441Z,23.90
2018-11-22T01:43:18.199Z,24.50
2018-11-22T01:45:47.268Z,24.27
2018-11-22T01:48:16.121Z,24.37
2018-11-22T01:50:44.283Z,24.17
2018-11-22T01:53:13.130Z,25.20
2018-11-22T01:55:41.604Z,24.40
2018-11-22T01:58:10.382Z,24.80
2018-11-22T02:00:38.868Z,26.00
2018-11-22T02:03:07.035Z,27.20
2018-11-22T02:05:35.550Z,24.47
2018-11-22T02:08:04.087Z,25.37
2018-11-22T02:10:33.024Z,24.33
2018-11-22T02:13:01.526Z,24.33
2018-11-22T02:15:29.958Z,25.27
2018-11-22T02:17:58.477Z,23.93
2018-11-22T02:20:26.890Z,27.53
2018-11-22T02:22:56.432Z,26.00
2018-11-22T02:25:26.233Z,26.87
2018-11-22T02:27:54.741Z,26.47
2018-11-22T02:30:24.491Z,26.30
2018-11-22T02:32:55.341Z,26.13
2018-11-22T02:35:24.036Z,25.60
2018-11-22T02:37:53.374Z,25.90
2018-11-22T02:40:22.635Z,26.03
2018-11-22T02:42:52.366Z,27.73
2018-11-22T02:45:22.854Z,27.00
2018-11-22T02:47:51.697Z,26.67
2018-11-22T02:50:21.271Z,26.23
2018-11-22T02:52:50.651Z,28.27
2018-11-22T02:55:19.423Z,28.17
2018-11-22T02:57:47.888Z,27.10
2018-11-22T03:00:37.306Z,29.03
2018-11-22T03:03:06.755Z,27.73
2018-11-22T03:05:35.626Z,27.70
2018-11-22T03:08:04.026Z,27.17
2018-11-22T03:10:32.190Z,27.70
2018-11-22T03:13:00.665Z,29.03
2018-11-22T03:15:29.216Z,29.40
2018-11-22T03:17:57.733Z,28.90
2018-11-22T03:20:27.230Z,26.90
2018-11-22T03:22:56.418Z,29.73
2018-11-22T03:25:24.912Z,29.00
2018-11-22T03:27:54.019Z,28.40
2018-11-22T03:30:24.293Z,27.77
2018-11-22T03:32:53.647Z,28.80
2018-11-22T03:35:24.025Z,30.30
2018-11-22T03:37:52.775Z,27.27
2018-11-22T03:40:22.547Z,28.20
2018-11-22T03:42:50.744Z,29.00
2018-11-22T03:45:19.612Z,28.70
2018-11-22T03:47:48.138Z,27.73
2018-11-22T03:50:18.494Z,29.40
2018-11-22T03:52:47.928Z,29.10
2018-11-22T03:55:35.523Z,29.60
2018-11-22T03:58:03.952Z,28.30
2018-11-22T04:00:32.152Z,30.97
2018-11-22T04:03:00.641Z,30.00
2018-11-22T04:05:29.954Z,27.30
2018-11-22T04:07:58.128Z,30.27
2018-11-22T04:10:28.190Z,28.70
2018-11-22T04:12:57.097Z,29.47
2018-11-22T04:15:25.766Z,32.23
2018-11-22T04:17:54.958Z,28.47
2018-11-22T04:20:24.574Z,28.50
2018-11-22T04:22:53.370Z,29.20
2018-11-22T04:25:22.358Z,29.40
2018-11-22T04:27:51.188Z,28.93
2018-11-22T04:30:21.979Z,31.00
2018-11-22T04:32:50.558Z,28.30
2018-11-22T04:35:20.355Z,29.53
2018-11-22T04:37:49.127Z,29.50
2018-11-22T04:40:19.436Z,28.50
2018-11-22T04:42:48.705Z,28.70
2018-11-22T04:45:17.980Z,29.57
2018-11-22T04:47:47.284Z,28.30
2018-11-22T04:50:17.217Z,28.93
2018-11-22T04:52:46.283Z,27.20
2018-11-22T04:55:15.095Z,29.17
2018-11-22T04:57:43.926Z,30.53
2018-11-22T05:00:15.325Z,28.80
2018-11-22T05:02:43.807Z,30.20
2018-11-22T05:05:13.981Z,29.63
2018-11-22T05:07:42.210Z,29.13
2018-11-22T05:10:13.403Z,27.90
2018-11-22T05:12:41.838Z,29.23
2018-11-22T05:15:11.976Z,29.90
2018-11-22T05:17:59.804Z,26.30
2018-11-22T05:20:28.293Z,28.77
2018-11-22T05:22:56.801Z,27.63
2018-11-22T05:25:24.962Z,29.23
2018-11-22T05:27:54.022Z,29.80
2018-11-22T05:30:41.624Z,28.17
2018-11-22T05:33:29.158Z,28.17
2018-11-22T05:36:16.699Z,27.17
2018-11-22T05:38:45.236Z,27.13
2018-11-22T05:41:13.722Z,27.60
2018-11-22T05:43:42.503Z,27.57
2018-11-22T05:46:10.949Z,29.10
2018-11-22T05:48:39.466Z,28.00
2018-11-22T05:51:08.248Z,29.17
2018-11-22T05:53:36.702Z,29.30
2018-11-22T05:56:05.461Z,28.47
2018-11-22T05:58:53.015Z,29.40
2018-11-22T06:01:21.545Z,28.50
2018-11-22T06:03:50.320Z,29.43
2018-11-22T06:06:19.484Z,29.13
2018-11-22T06:08:48.100Z,28.00
2018-11-22T06:11:16.658Z,29.70
2018-11-22T06:13:45.429Z,29.00
2018-11-22T06:16:14.224Z,28.27
2018-11-22T06:18:43.086Z,27.07
2018-11-22T06:21:12.102Z,27.27
2018-11-22T06:23:40.890Z,29.80
2018-11-22T06:26:09.450Z,29.70
2018-11-22T06:28:37.630Z,31.07
2018-11-22T06:31:06.416Z,29.43
2018-11-22T06:33:34.133Z,30.80
2018-11-22T06:36:03.409Z,29.57
2018-11-22T06:38:31.914Z,29.30
2018-11-22T06:41:00.408Z,28.47
2018-11-22T06:43:28.965Z,29.30
2018-11-22T06:45:58.354Z,30.77
2018-11-22T06:48:46.961Z,29.07
2018-11-22T06:51:15.126Z,29.97
2018-11-22T06:53:43.651Z,29.50
2018-11-22T06:56:12.751Z,30.63
2018-11-22T06:58:41.553Z,30.77
2018-11-22T07:01:10.092Z,30.37
2018-11-22T07:03:38.267Z,30.17
2018-11-22T07:06:06.814Z,28.97
2018-11-22T07:08:35.372Z,29.87
2018-11-22T07:11:04.201Z,31.20
2018-11-22T07:13:32.395Z,29.63
2018-11-22T07:16:00.884Z,31.70
2018-11-22T07:18:48.420Z,30.63
2018-11-22T07:21:16.617Z,30.07
2018-11-22T07:23:45.106Z,30.40
2018-11-22T07:26:13.662Z,30.83
2018-11-22T07:28:42.164Z,30.57
2018-11-22T07:31:10.343Z,31.30
2018-11-22T07:33:39.745Z,31.60
2018-11-22T07:36:08.611Z,29.80
2018-11-22T07:38:37.624Z,31.53
2018-11-22T07:43:46.103Z,29.80
2018-11-22T07:46:14.288Z,31.10
2018-11-22T07:48:43.407Z,30.23
2018-11-22T07:51:12.250Z,33.60
2018-11-22T07:53:40.413Z,31.30
2018-11-22T07:56:08.609Z,30.83
2018-11-22T07:58:37.106Z,31.67
2018-11-22T08:01:06.388Z,32.10
2018-11-22T08:03:35.139Z,28.33
2018-11-22T08:06:03.651Z,29.20
2018-11-22T08:08:31.826Z,31.60
2018-11-22T08:11:00.615Z,30.50
2018-11-22T08:13:29.971Z,29.57
2018-11-22T08:15:58.128Z,31.10
2018-11-22T08:18:26.851Z,31.70
2018-11-22T08:20:56.097Z,28.60
2018-11-22T08:23:25.481Z,29.80
2018-11-22T08:25:53.649Z,30.37
2018-11-22T08:28:22.147Z,29.70
2018-11-22T08:30:51.534Z,28.87
2018-11-22T08:33:19.699Z,30.10
2018-11-22T08:35:48.209Z,32.87
2018-11-22T08:38:16.716Z,31.20
2018-11-22T08:40:45.771Z,31.53
2018-11-22T08:43:14.234Z,31.43
2018-11-22T08:45:43.601Z,32.10
2018-11-22T08:48:12.040Z,32.00
2018-11-22T08:51:00.523Z,31.23
2018-11-22T08:53:29.531Z,31.57
2018-11-22T08:55:58.065Z,30.47
2018-11-22T08:58:27.260Z,31.70
2018-11-22T09:00:56.822Z,29.73
2018-11-22T09:03:25.667Z,30.60
2018-11-22T09:06:12.949Z,31.43
2018-11-22T09:08:41.448Z,29.27
2018-11-22T09:11:10.224Z,30.40
2018-11-22T09:13:38.964Z,31.80
2018-11-22T09:16:07.760Z,29.70
2018-11-22T09:18:36.543Z,30.83
2018-11-22T09:21:05.665Z,29.00
2018-11-22T09:23:38.480Z,31.13
2018-11-22T09:26:02.358Z,29.83
2018-11-22T09:28:30.877Z,31.40
2018-11-22T09:30:59.904Z,29.80
2018-11-22T09:33:28.706Z,31.00
2018-11-22T09:35:57.483Z,29.57
2018-11-22T09:38:26.014Z,28.67
2018-11-22T09:40:54.444Z,29.90
2018-11-22T09:43:22.964Z,29.20
2018-11-22T09:45:51.715Z,29.00
2018-11-22T09:48:20.277Z,29.00
2018-11-22T09:50:48.854Z,28.17
2018-11-22T09:53:18.389Z,30.23
2018-11-22T09:55:47.948Z,28.97
2018-11-22T09:58:16.459Z,27.47
2018-11-22T10:00:44.946Z,27.80
2018-11-22T10:03:32.567Z,28.03
2018-11-22T10:06:01.572Z,29.23
2018-11-22T10:08:30.514Z,30.33
2018-11-22T10:10:59.600Z,26.23
2018-11-22T10:13:28.161Z,26.60
2018-11-22T10:15:56.954Z,24.40
2018-11-22T10:18:25.767Z,25.03
2018-11-22T10:20:55.279Z,26.03
2018-11-22T10:23:24.134Z,26.20
2018-11-22T10:25:52.314Z,25.63
2018-11-22T10:28:40.230Z,25.93
2018-11-22T10:31:28.147Z,24.30
2018-11-22T10:33:56.966Z,23.83
2018-11-22T10:36:25.827Z,26.77
2018-11-22T10:38:54.241Z,24.07
2018-11-22T10:41:22.420Z,24.90
2018-11-22T10:43:51.217Z,25.90
2018-11-22T10:46:19.686Z,25.67
2018-11-22T10:48:48.158Z,25.27
2018-11-22T10:51:16.710Z,24.50
2018-11-22T10:53:45.453Z,25.50
2018-11-22T10:56:13.948Z,24.87
2018-11-22T10:58:42.389Z,24.37
2018-11-22T11:01:29.637Z,26.23
2018-11-22T11:04:17.187Z,25.97
2018-11-22T11:07:05.052Z,27.23
2018-11-22T11:09:33.497Z,26.50
2018-11-22T11:12:01.947Z,28.57
2018-11-22T11:14:30.429Z,28.23
2018-11-22T11:16:59.270Z,27.27
2018-11-22T11:19:28.061Z,28.93
2018-11-22T11:21:57.031Z,26.87
2018-11-22T11:24:26.234Z,27.97
2018-11-22T11:26:54.551Z,27.13
2018-11-22T11:29:23.362Z,28.33
2018-11-22T11:32:10.976Z,25.97
2018-11-22T11:34:39.495Z,26.77
2018-11-22T11:37:08.010Z,25.80
2018-11-22T11:39:36.800Z,27.53
2018-11-22T11:42:05.137Z,26.73
2018-11-22T11:44:33.309Z,27.00
2018-11-22T11:47:01.778Z,26.70
2018-11-22T11:49:30.264Z,27.93
2018-11-22T11:51:58.430Z,27.33
2018-11-22T11:54:27.291Z,26.20
2018-11-22T11:56:55.442Z,27.10
2018-11-22T11:59:23.770Z,26.27
2018-11-22T12:01:52.281Z,25.10
2018-11-22T12:04:21.347Z,28.37
2018-11-22T12:06:49.824Z,27.03
2018-11-22T12:09:18.281Z,26.80
2018-11-22T12:11:47.502Z,27.43
2018-11-22T12:14:35.016Z,27.60
2018-11-22T12:17:03.176Z,26.77
2018-11-22T12:19:31.945Z,27.10
2018-11-22T12:22:00.419Z,27.00
2018-11-22T12:24:29.115Z,26.80
2018-11-22T12:26:57.920Z,26.57
2018-11-22T12:29:26.407Z,24.40
2018-11-22T12:31:55.223Z,26.70
2018-11-22T12:34:43.133Z,26.23
2018-11-22T12:37:30.723Z,26.80
2018-11-22T12:39:59.759Z,26.90
2018-11-22T12:42:28.688Z,26.83
2018-11-22T12:45:01.952Z,26.47
2018-11-22T12:47:31.272Z,25.40
2018-11-22T12:50:00.464Z,25.73
2018-11-22T12:52:28.983Z,26.43
2018-11-22T12:54:57.728Z,26.70
2018-11-22T12:57:27.413Z,26.30
2018-11-22T12:59:56.824Z,25.47
2018-11-22T13:02:25.890Z,26.97
2018-11-22T13:05:13.168Z,26.53
2018-11-22T13:07:41.346Z,27.40
2018-11-22T13:10:12.272Z,26.20
2018-11-22T13:12:41.478Z,27.93
2018-11-22T13:15:12.315Z,26.83
2018-11-22T13:17:41.108Z,26.23
2018-11-22T13:20:12.445Z,27.27
2018-11-22T13:22:39.904Z,27.10
2018-11-22T13:25:15.753Z,26.10
2018-11-22T13:27:44.600Z,26.80
2018-11-22T13:30:33.491Z,26.23
2018-11-22T13:33:01.658Z,24.73
2018-11-22T13:35:49.219Z,27.43
2018-11-22T13:38:36.819Z,26.67
2018-11-22T13:41:24.403Z,27.67
2018-11-22T13:43:52.870Z,26.67
2018-11-22T13:46:21.670Z,26.90
2018-11-22T13:48:50.163Z,26.80
2018-11-22T13:51:18.668Z,27.00
2018-11-22T13:54:06.634Z,23.70
2018-11-22T13:56:35.127Z,25.20
2018-11-22T13:59:03.650Z,25.27
2018-11-22T14:01:32.129Z,25.27
2018-11-22T14:04:00.614Z,24.90
2018-11-22T14:06:29.249Z,26.47
2018-11-22T14:08:58.051Z,22.43
2018-11-22T14:11:26.721Z,25.30
2018-11-22T14:13:54.915Z,23.37
2018-11-22T14:16:23.094Z,22.63
2018-11-22T14:18:51.564Z,23.67
2018-11-22T14:21:19.739Z,22.73
2018-11-22T14:23:48.429Z,24.57
2018-11-22T14:26:16.968Z,24.43
2018-11-22T14:28:45.165Z,23.27
2018-11-22T14:31:13.589Z,24.27
2018-11-22T14:33:42.451Z,23.50
2018-11-22T14:36:10.640Z,23.23
2018-11-22T14:38:39.212Z,23.30
2018-11-22T14:41:08.103Z,23.97
2018-11-22T14:43:36.344Z,24.30
2018-11-22T14:46:04.812Z,23.30
2018-11-22T14:48:52.059Z,22.77
2018-11-22T14:51:42.151Z,22.57
2018-11-22T14:54:10.298Z,23.33
2018-11-22T14:56:58.179Z,24.40
2018-11-22T14:59:26.335Z,24.73
2018-11-22T15:01:54.554Z,24.27
2018-11-22T15:04:42.122Z,24.23
2018-11-22T15:07:10.611Z,24.30
2018-11-22T15:09:57.856Z,25.47
2018-11-22T15:12:26.472Z,24.13
2018-11-22T15:14:55.267Z,25.53
2018-11-22T15:17:24.027Z,25.43
2018-11-22T15:19:52.875Z,24.53
2018-11-22T15:22:21.042Z,23.17
2018-11-22T15:24:49.479Z,26.70
2018-11-22T15:27:18.269Z,24.30
2018-11-22T15:29:46.903Z,26.20
2018-11-22T15:32:15.744Z,24.80
2018-11-22T15:34:44.247Z,26.17
2018-11-22T15:37:12.742Z,24.67
2018-11-22T15:39:40.912Z,26.53
2018-11-22T15:42:09.355Z,25.57
2018-11-22T15:44:37.923Z,27.00
2018-11-22T15:47:06.538Z,25.50
2018-11-22T15:49:35.025Z,25.90
2018-11-22T15:52:03.684Z,25.03
2018-11-22T15:54:33.103Z,26.77
2018-11-22T15:57:01.576Z,26.37
2018-11-22T15:59:30.394Z,25.67
2018-11-22T16:01:59.768Z,26.23
2018-11-22T16:04:28.567Z,26.60
2018-11-22T16:06:57.368Z,26.90
2018-11-22T16:09:25.810Z,24.47
2018-11-22T16:11:54.979Z,25.10
2018-11-22T16:14:23.510Z,24.97
2018-11-22T16:16:51.723Z,25.40
2018-11-22T16:19:19.941Z,26.30
2018-11-22T16:21:49.273Z,26.03
2018-11-22T16:24:17.839Z,26.27
2018-11-22T16:26:46.648Z,26.10
2018-11-22T16:29:15.360Z,26.33
2018-11-22T16:31:43.537Z,29.20
2018-11-22T16:34:12.513Z,26.83
2018-11-22T16:36:40.731Z,27.10
2018-11-22T16:39:28.685Z,25.77
2018-11-22T16:41:56.892Z,25.57
2018-11-22T16:44:25.649Z,25.97
2018-11-22T16:46:54.759Z,24.70
2018-11-22T16:49:23.132Z,26.67
2018-11-22T16:51:51.593Z,27.77
2018-11-22T16:54:20.725Z,28.37
2018-11-22T16:56:49.558Z,27.13
2018-11-22T16:59:37.461Z,27.90
2018-11-22T17:02:06.015Z,26.00
2018-11-22T17:04:34.618Z,26.73
2018-11-22T17:07:03.420Z,25.73
2018-11-22T17:09:31.627Z,26.80
2018-11-22T17:12:00.080Z,26.87
2018-11-22T17:14:29.119Z,26.83
2018-11-22T17:16:57.716Z,26.27
2018-11-22T17:19:26.665Z,28.17
2018-11-22T17:21:55.251Z,27.30
2018-11-22T17:24:25.585Z,28.60
2018-11-22T17:26:54.530Z,28.20
2018-11-22T17:29:23.386Z,27.20
2018-11-22T17:31:52.352Z,26.13
2018-11-22T17:34:21.014Z,27.77
2018-11-22T17:36:49.427Z,29.17
2018-11-22T17:39:37.399Z,29.50
2018-11-22T17:42:06.338Z,29.50
2018-11-22T17:44:34.904Z,28.70
2018-11-22T17:47:23.084Z,28.70
2018-11-22T17:49:51.533Z,28.07
2018-11-22T17:52:20.377Z,29.70
2018-11-22T17:54:48.885Z,28.87
2018-11-22T17:57:17.405Z,27.90
2018-11-22T18:00:06.787Z,29.87
2018-11-22T18:02:35.250Z,29.43
2018-11-22T18:05:27.107Z,27.60
2018-11-22T18:08:10.176Z,28.23
2018-11-22T18:10:40.038Z,28.67
2018-11-22T18:13:08.784Z,27.27
2018-11-22T18:15:56.067Z,29.63
2018-11-22T18:18:25.077Z,30.00
2018-11-22T18:20:53.552Z,29.27
2018-11-22T18:23:22.151Z,29.17
2018-11-22T18:26:09.999Z,28.50
2018-11-22T18:28:39.535Z,29.10
2018-11-22T18:31:27.076Z,27.80
2018-11-22T18:33:55.789Z,29.80
2018-11-22T18:36:24.356Z,29.03
2018-11-22T18:38:52.592Z,29.23
2018-11-22T18:41:21.668Z,29.80
2018-11-22T18:44:09.484Z,28.97
2018-11-22T18:46:57.093Z,29.57
2018-11-22T18:49:25.879Z,30.37
2018-11-22T18:51:54.642Z,29.73
2018-11-22T18:54:22.818Z,30.27
2018-11-22T18:56:51.026Z,31.00
2018-11-22T18:59:19.520Z,30.60
2018-11-22T19:01:48.503Z,29.70
2018-11-22T19:04:16.678Z,29.07
2018-11-22T19:06:45.230Z,30.17
2018-11-22T19:09:13.499Z,30.20
2018-11-22T19:11:42.442Z,28.27
2018-11-22T19:14:11.079Z,30.97
2018-11-22T19:16:39.748Z,29.30
2018-11-22T19:19:07.991Z,28.67
2018-11-22T19:21:40.984Z,29.43
2018-11-22T19:24:05.437Z,30.57
2018-11-22T19:26:53.287Z,28.33
2018-11-22T19:29:22.124Z,27.90
2018-11-22T19:31:50.949Z,30.10
2018-11-22T19:34:19.141Z,27.63
2018-11-22T19:36:48.476Z,30.00
2018-11-22T19:39:17.822Z,29.00
2018-11-22T19:42:05.445Z,30.70
2018-11-22T19:44:33.955Z,28.77
2018-11-22T19:47:02.684Z,29.87
2018-11-22T19:49:44.073Z,29.60
2018-11-22T19:52:31.295Z,31.27
2018-11-22T19:54:59.840Z,30.10
2018-11-22T19:57:28.751Z,28.80
2018-11-22T19:59:58.735Z,28.93
2018-11-22T20:02:27.009Z,28.37
2018-11-22T20:04:55.212Z,29.57
2018-11-22T20:07:24.276Z,30.73
2018-11-22T20:09:53.634Z,27.63
2018-11-22T20:12:22.328Z,29.53
2018-11-22T20:14:51.481Z,28.73
2018-11-22T20:17:19.714Z,28.30
2018-11-22T20:19:48.558Z,28.27
2018-11-22T20:22:17.447Z,29.00
2018-11-22T20:24:45.712Z,28.70
2018-11-22T20:27:14.648Z,28.37
2018-11-22T20:29:42.903Z,28.97
2018-11-22T20:32:11.460Z,26.63
2018-11-22T20:34:59.094Z,25.77
2018-11-22T20:37:27.992Z,27.50
2018-11-22T20:39:57.171Z,27.97
2018-11-22T20:42:25.389Z,28.23
2018-11-22T20:44:54.479Z,26.73
2018-11-22T20:47:23.328Z,26.97
2018-11-22T20:52:50.371Z,28.50
2018-11-22T20:55:21.104Z,26.90
2018-11-22T20:57:50.504Z,28.35
2018-11-22T21:00:20.017Z,27.20
2018-11-22T21:02:48.198Z,27.00
2018-11-22T21:05:17.454Z,28.40
2018-11-22T21:07:45.987Z,26.30
2018-11-22T21:10:18.884Z,25.12
2018-11-22T21:12:47.132Z,25.93
2018-11-22T21:15:17.768Z,28.80
2018-11-22T21:17:46.855Z,28.80
2018-11-22T21:20:16.249Z,27.10
2018-11-22T21:22:44.488Z,27.30
2018-11-22T21:25:14.205Z,27.57
2018-11-22T21:27:42.447Z,26.03
2018-11-22T21:30:16.168Z,27.30
2018-11-22T21:32:45.313Z,28.50
2018-11-22T21:35:13.800Z,26.40
2018-11-22T21:37:42.165Z,27.40
2018-11-22T21:40:10.957Z,27.30
2018-11-22T21:42:39.236Z,26.90
2018-11-22T21:45:11.293Z,29.53
2018-11-22T21:47:39.464Z,27.70
2018-11-22T21:50:08.884Z,29.07
2018-11-22T21:52:37.285Z,27.57
2018-11-22T21:55:07.134Z,26.50
2018-11-22T21:57:42.652Z,26.50
2018-11-22T22:00:14.472Z,26.53
2018-11-22T22:02:42.640Z,27.53
2018-11-22T22:05:11.233Z,28.30
2018-11-22T22:07:40.029Z,26.70
2018-11-22T22:10:08.306Z,26.40
2018-11-22T22:12:36.520Z,27.30
2018-11-22T22:15:05.808Z,26.52
2018-11-22T22:17:33.995Z,26.02
2018-11-22T22:20:02.172Z,28.80
2018-11-22T22:22:30.342Z,26.60
2018-11-22T22:24:58.496Z,26.97
2018-11-22T22:27:26.669Z,25.77
2018-11-22T22:29:54.862Z,26.43
2018-11-22T22:32:23.073Z,25.00
2018-11-22T22:34:51.231Z,26.40
2018-11-22T22:37:19.422Z,27.75
2018-11-22T22:39:47.627Z,23.90
2018-11-22T22:42:15.821Z,25.97
2018-11-22T22:44:44.004Z,27.25
2018-11-22T22:47:12.208Z,27.07
2018-11-22T22:49:40.375Z,26.42
2018-11-22T22:52:08.556Z,28.85
2018-11-22T22:54:36.977Z,28.20
2018-11-22T22:57:05.261Z,26.90
2018-11-22T22:59:33.456Z,27.00
2018-11-22T23:02:01.635Z,27.77
2018-11-22T23:04:29.948Z,28.00
2018-11-22T23:06:58.204Z,26.73
2018-11-22T23:09:26.392Z,25.60
2018-11-22T23:11:54.604Z,26.97
2018-11-22T23:14:22.797Z,26.30
2018-11-22T23:16:50.983Z,27.27
2018-11-22T23:19:19.167Z,24.80
2018-11-22T23:21:47.437Z,27.42
2018-11-22T23:24:15.659Z,26.10
2018-11-22T23:26:43.885Z,26.77
2018-11-22T23:29:12.102Z,28.00
2018-11-22T23:31:40.319Z,26.27
2018-11-22T23:34:08.512Z,26.82
2018-11-22T23:36:36.734Z,26.53
2018-11-22T23:39:08.273Z,25.47
2018-11-22T23:41:36.501Z,28.17
2018-11-22T23:44:04.736Z,27.50
2018-11-22T23:46:32.932Z,27.60
2018-11-22T23:49:01.120Z,27.30
2018-11-22T23:51:29.283Z,25.73
2018-11-22T23:53:57.780Z,26.20
2018-11-22T23:56:25.940Z,26.52
2018-11-22T23:58:54.127Z,25.62
